Time;durP1;ratioP1;P1;durP2;ratioP2;P2;SDS_P1;SDS_P2;PMS_P1;PMS_P2;Temp;Humidity;BMP_temperature;BMP_pressure;BME280_temperature;BME280_humidity;BME280_pressure;Samples;Min_cycle;Max_cycle;Signal;HPM_P1;HPM_P2
2020/01/13 00:01:48;;;;;;;7.8;4.1;;;;;;;-0.08;67.4248;947.1361;;;;
2020/01/13 00:06:38;;;;;;;7.8;4.4;;;;;;;-0.32;67.52051;947.0583;;;;
2020/01/13 00:09:03;;;;;;;8.7;5.3;;;;;;;-0.21;67.59473;947.1406;;;;
2020/01/13 00:11:28;;;;;;;11.9;6.5;;;;;;;-0.14;67.42676;947.1231;;;;
2020/01/13 00:13:54;;;;;;;14.4;7.4;;;;;;;-0.15;67.28027;947.1075;;;;
2020/01/13 00:16:19;;;;;;;14.8;8.1;;;;;;;-0.35;67.81641;947.0811;;;;
2020/01/13 00:18:44;;;;;;;13.3;6.9;;;;;;;-0.42;68.18359;947.1463;;;;
2020/01/13 00:21:09;;;;;;;12.2;7.2;;;;;;;-0.45;68.58008;947.1581;;;;
2020/01/13 00:23:34;;;;;;;13.5;6.9;;;;;;;-0.34;68.05078;947.1287;;;;
2020/01/13 00:25:59;;;;;;;13.9;7;;;;;;;-0.4;68.23242;947.0203;;;;
2020/01/13 00:28:30;;;;;;;11;6.3;;;;;;;-0.41;68.22949;947.0747;;;;
2020/01/13 00:30:51;;;;;;;11.5;6.4;;;;;;;-0.39;68.39941;946.9793;;;;
2020/01/13 00:33:14;;;;;;;9.8;5.4;;;;;;;-0.41;68.25195;947.0903;;;;
2020/01/13 00:35:39;;;;;;;9.7;5.2;;;;;;;-0.51;68.61426;947.045;;;;
2020/01/13 00:38:05;;;;;;;7.6;4.7;;;;;;;-0.54;68.60938;947.0345;;;;
2020/01/13 00:40:30;;;;;;;7;3.8;;;;;;;-0.62;68.3291;946.9962;;;;
2020/01/13 00:42:55;;;;;;;6.1;3.5;;;;;;;-0.71;68.54688;946.9508;;;;
2020/01/13 00:45:20;;;;;;;5;3.1;;;;;;;-0.72;68.61328;946.9458;;;;
2020/01/13 00:47:45;;;;;;;6.3;3;;;;;;;-0.74;67.54297;946.8834;;;;
2020/01/13 00:50:10;;;;;;;5.2;2.6;;;;;;;-0.61;67.0625;946.878;;;;
2020/01/13 00:52:35;;;;;;;6.3;2.8;;;;;;;-0.52;67.38867;946.9239;;;;
2020/01/13 00:55:00;;;;;;;5.8;2.7;;;;;;;-0.46;67.04297;946.9028;;;;
2020/01/13 00:57:25;;;;;;;4.9;2.8;;;;;;;-0.37;66.70117;946.9324;;;;
2020/01/13 00:59:51;;;;;;;8.1;3.8;;;;;;;-0.34;67.00391;946.8652;;;;
2020/01/13 01:02:16;;;;;;;8.4;3.5;;;;;;;-0.31;67.23242;946.9462;;;;
2020/01/13 01:04:41;;;;;;;6.9;3.7;;;;;;;-0.24;67.13281;946.9217;;;;
2020/01/13 01:07:06;;;;;;;8;4.8;;;;;;;-0.32;67.03027;946.8821;;;;
2020/01/13 01:09:31;;;;;;;7.3;4.1;;;;;;;-0.5;67.61426;946.8392;;;;
2020/01/13 01:11:56;;;;;;;9.4;4.5;;;;;;;-0.59;68;946.8489;;;;
2020/01/13 01:14:21;;;;;;;9.5;4.6;;;;;;;-0.61;68.27539;946.8489;;;;
2020/01/13 01:19:17;;;;;;;10.1;5.2;;;;;;;-0.67;68.30957;946.8058;;;;
2020/01/13 01:21:37;;;;;;;8.9;5.2;;;;;;;-0.68;68.53027;946.8881;;;;
2020/01/13 01:24:02;;;;;;;7.9;4.2;;;;;;;-0.82;69.16406;946.7913;;;;
2020/01/13 01:26:27;;;;;;;9.3;4.3;;;;;;;-0.88;69.75391;946.8004;;;;
2020/01/13 01:28:52;;;;;;;8.1;3.7;;;;;;;-1;70.06641;946.8218;;;;
2020/01/13 01:33:49;;;;;;;8.1;3.3;;;;;;;-1.08;70.03223;946.8036;;;;
2020/01/13 01:36:07;;;;;;;6.2;3.5;;;;;;;-0.98;69.87109;946.7719;;;;
2020/01/13 01:38:32;;;;;;;10.6;3.7;;;;;;;-1.1;70.31836;946.7877;;;;
2020/01/13 01:40:57;;;;;;;5.6;2.9;;;;;;;-1.12;70.26953;946.7178;;;;
2020/01/13 01:43:22;;;;;;;6.3;2.9;;;;;;;-1.01;70.12012;946.6898;;;;
2020/01/13 01:45:48;;;;;;;5.5;2.8;;;;;;;-1;69.56641;946.6577;;;;
2020/01/13 01:50:40;;;;;;;4.5;2.8;;;;;;;-0.75;68.12891;946.601;;;;
2020/01/13 01:53:03;;;;;;;4.8;2.7;;;;;;;-0.59;67.59961;946.5383;;;;
2020/01/13 01:55:28;;;;;;;6.1;2.7;;;;;;;-0.5;67.25781;946.5776;;;;
2020/01/13 01:57:53;;;;;;;5.9;3.1;;;;;;;-0.45;67.2666;946.4441;;;;
2020/01/13 02:00:19;;;;;;;5;2.8;;;;;;;-0.44;67.31055;946.5195;;;;
2020/01/13 02:05:11;;;;;;;5;2.9;;;;;;;-0.53;67.69727;946.4536;;;;
2020/01/13 02:07:33;;;;;;;8.3;3.1;;;;;;;-0.82;68.86426;946.3762;;;;
2020/01/13 02:09:59;;;;;;;5.2;2.7;;;;;;;-0.88;68.82031;946.3801;;;;
2020/01/13 02:12:24;;;;;;;5.7;2.3;;;;;;;-1;68.26758;946.3169;;;;
2020/01/13 02:14:49;;;;;;;5.2;2.4;;;;;;;-0.91;68.02637;946.2078;;;;
2020/01/13 02:19:43;;;;;;;7.3;2.5;;;;;;;-0.7;67.89355;946.3097;;;;
2020/01/13 02:22:04;;;;;;;5.1;2.5;;;;;;;-0.62;67.79395;946.2429;;;;
2020/01/13 02:24:29;;;;;;;4.9;2.7;;;;;;;-0.66;68.01172;946.2094;;;;
2020/01/13 02:27:02;;;;;;;4.9;2.9;;;;;;;-0.67;68.15527;946.2385;;;;
2020/01/13 02:29:20;;;;;;;6.3;2.6;;;;;;;-0.86;68.8916;946.207;;;;
2020/01/13 02:31:47;;;;;;;6.1;2.7;;;;;;;-0.98;69.57129;946.2554;;;;
2020/01/13 02:34:09;;;;;;;7.1;3.6;;;;;;;-0.97;69.71582;946.2785;;;;
2020/01/13 02:36:34;;;;;;;8;3.5;;;;;;;-0.95;69.75293;946.2527;;;;
2020/01/13 02:39:00;;;;;;;6.3;3.1;;;;;;;-0.9;69.42871;946.1788;;;;
2020/01/13 02:41:36;;;;;;;6.5;3;;;;;;;-0.94;69.47656;946.1508;;;;
2020/01/13 02:44:07;;;;;;;5.9;3.3;;;;;;;-1.02;69.89844;946.1356;;;;
2020/01/13 02:46:36;;;;;;;5.4;3.2;;;;;;;-0.92;69.93555;946.0786;;;;
2020/01/13 02:48:41;;;;;;;7.8;3.4;;;;;;;-0.85;69.75977;946.0882;;;;
2020/01/13 02:51:13;;;;;;;9.2;3.2;;;;;;;-0.79;69.58105;946.0909;;;;
2020/01/13 02:53:31;;;;;;;6.4;3.2;;;;;;;-0.73;68.94531;946.0653;;;;
2020/01/13 02:55:55;;;;;;;5.9;3.4;;;;;;;-0.93;69.10156;946.062;;;;
2020/01/13 02:58:20;;;;;;;9.4;4.4;;;;;;;-1.23;70.24121;945.9669;;;;
2020/01/13 03:00:47;;;;;;;8.1;4.4;;;;;;;-1.28;70.59766;946.0633;;;;
2020/01/13 03:03:18;;;;;;;6.2;3.5;;;;;;;-1.22;70.58691;945.9744;;;;
2020/01/13 03:05:46;;;;;;;5.5;3;;;;;;;-1.26;70.79102;945.9871;;;;
2020/01/13 03:08:00;;;;;;;4.8;2.8;;;;;;;-1.29;70.59766;945.9286;;;;
2020/01/13 03:10:26;;;;;;;6.9;2.8;;;;;;;-1.24;70.37305;945.9788;;;;
2020/01/13 03:12:51;;;;;;;5.6;2.7;;;;;;;-1.17;70.30469;946.0316;;;;
2020/01/13 03:15:16;;;;;;;5.5;2.8;;;;;;;-1.06;69.99121;945.8803;;;;
2020/01/13 03:17:41;;;;;;;5.4;2.9;;;;;;;-1.05;69.51465;945.9222;;;;
2020/01/13 03:20:32;;;;;;;5.2;2.6;;;;;;;-1.31;70.01563;945.8894;;;;
2020/01/13 03:22:32;;;;;;;6.3;2.8;;;;;;;-1.46;70.75781;945.885;;;;
2020/01/13 03:24:58;;;;;;;5.2;2.7;;;;;;;-1.55;71.20996;945.8924;;;;
2020/01/13 03:27:23;;;;;;;6.1;2.6;;;;;;;-1.54;71.39844;945.8731;;;;
2020/01/13 03:29:48;;;;;;;6.1;3;;;;;;;-1.63;72.00488;945.8661;;;;
2020/01/13 03:32:16;;;;;;;5;2.7;;;;;;;-1.59;71.87793;945.781;;;;
2020/01/13 03:34:39;;;;;;;6;2.8;;;;;;;-1.57;71.80469;945.837;;;;
2020/01/13 03:37:04;;;;;;;5.1;2.6;;;;;;;-1.71;72.32324;945.8391;;;;
2020/01/13 03:39:34;;;;;;;5.3;2.4;;;;;;;-1.72;72.49902;945.8337;;;;
2020/01/13 03:42:11;;;;;;;5.2;2.6;;;;;;;-1.74;72.23047;945.7841;;;;
2020/01/13 03:46:58;;;;;;;7.1;2.8;;;;;;;-1.71;72.21289;945.7971;;;;
2020/01/13 03:49:14;;;;;;;7.5;2.7;;;;;;;-1.69;72.17285;945.843;;;;
2020/01/13 03:52:33;;;;;;;7.7;4.1;;;;;;;-1.72;72.18848;945.6892;;;;
2020/01/13 03:56:09;;;;;;;7.4;4.7;;;;;;;-1.73;72.12207;945.692;;;;
2020/01/13 03:58:47;;;;;;;7.4;4.1;;;;;;;-1.84;72.64355;945.6854;;;;
2020/01/13 04:02:30;;;;;;;7.9;3;;;;;;;-1.96;73.03418;945.6506;;;;
2020/01/13 04:04:55;;;;;;;10.5;3.4;;;;;;;-1.94;72.90527;945.5378;;;;
2020/01/13 04:07:20;;;;;;;5;2.7;;;;;;;-1.87;72.46191;945.5828;;;;
2020/01/13 04:09:45;;;;;;;5;2.6;;;;;;;-1.84;72.24609;945.515;;;;
2020/01/13 04:12:10;;;;;;;7.8;3.6;;;;;;;-1.81;72.0957;945.4677;;;;
2020/01/13 04:14:35;;;;;;;8.2;4;;;;;;;-1.8;72.03027;945.5383;;;;
2020/01/13 04:17:00;;;;;;;6.7;3.8;;;;;;;-1.93;71.83301;945.4964;;;;
2020/01/13 04:19:25;;;;;;;9.3;3.7;;;;;;;-1.89;72.09277;945.4551;;;;
2020/01/13 04:21:50;;;;;;;8.5;4.4;;;;;;;-1.83;71.56055;945.4008;;;;
2020/01/13 04:24:15;;;;;;;5.8;3.2;;;;;;;-1.91;71.73438;945.3547;;;;
2020/01/13 04:26:40;;;;;;;6.9;3.7;;;;;;;-1.83;71.64844;945.3848;;;;
2020/01/13 04:29:05;;;;;;;5;3;;;;;;;-1.82;71.40625;945.4158;;;;
2020/01/13 04:31:30;;;;;;;5.7;3.5;;;;;;;-1.77;71.55859;945.3907;;;;
2020/01/13 04:33:56;;;;;;;9.8;3.6;;;;;;;-1.67;71.49707;945.4097;;;;
2020/01/13 04:36:21;;;;;;;6.5;3.5;;;;;;;-1.72;71.42285;945.4584;;;;
2020/01/13 04:38:46;;;;;;;7.5;3.5;;;;;;;-1.81;71.62988;945.498;;;;
2020/01/13 04:41:11;;;;;;;8.1;3.8;;;;;;;-1.95;72.1377;945.4631;;;;
2020/01/13 04:43:36;;;;;;;8.4;3.7;;;;;;;-2.06;72.6416;945.4459;;;;
2020/01/13 04:46:01;;;;;;;8.4;3.5;;;;;;;-2.15;72.8252;945.3939;;;;
2020/01/13 04:48:26;;;;;;;9.1;3.9;;;;;;;-2.15;72.87891;945.3384;;;;
2020/01/13 04:50:51;;;;;;;7.7;3.5;;;;;;;-2.07;72.75977;945.2864;;;;
2020/01/13 04:53:17;;;;;;;6.3;3.6;;;;;;;-2.1;72.19043;945.3081;;;;
2020/01/13 04:55:42;;;;;;;10.7;3.8;;;;;;;-2.07;71.91797;945.2789;;;;
2020/01/13 04:58:24;;;;;;;10.8;3.8;;;;;;;-1.97;71.58008;945.1663;;;;
2020/01/13 05:00:40;;;;;;;8.3;3.9;;;;;;;-1.9;71.24805;945.2238;;;;
2020/01/13 05:02:58;;;;;;;8.3;3.6;;;;;;;-1.94;71.35352;945.1398;;;;
2020/01/13 05:05:22;;;;;;;7.7;3.5;;;;;;;-2.04;71.90137;945.1213;;;;
2020/01/13 05:07:47;;;;;;;9;4.2;;;;;;;-2.01;71.97266;945.0986;;;;
2020/01/13 05:10:12;;;;;;;12.3;5.6;;;;;;;-1.94;71.47559;945.1233;;;;
2020/01/13 05:12:40;;;;;;;12.1;5.7;;;;;;;-2.02;71.62598;945.1191;;;;
2020/01/13 05:15:03;;;;;;;10.4;4.4;;;;;;;-2.04;72.0127;945.0151;;;;
2020/01/13 05:17:28;;;;;;;10.9;4.3;;;;;;;-2.1;72.14551;945.0316;;;;
2020/01/13 05:19:53;;;;;;;7.5;3.7;;;;;;;-2.15;72.32617;945.032;;;;
2020/01/13 05:22:18;;;;;;;8.5;3.1;;;;;;;-2.18;72.56445;944.9666;;;;
2020/01/13 05:24:44;;;;;;;6.1;3.3;;;;;;;-2.21;72.66992;944.9761;;;;
2020/01/13 05:27:09;;;;;;;6.9;3.6;;;;;;;-2.24;72.87402;944.993;;;;
2020/01/13 05:29:34;;;;;;;10.8;4.1;;;;;;;-2.24;72.95215;945.0055;;;;
2020/01/13 05:32:00;;;;;;;7.6;3.7;;;;;;;-2.31;73.30664;944.9983;;;;
2020/01/13 05:34:25;;;;;;;8;3.7;;;;;;;-2.31;73.4502;945.0032;;;;
2020/01/13 05:36:50;;;;;;;6.3;3.5;;;;;;;-2.32;73.41602;944.9539;;;;
2020/01/13 05:39:15;;;;;;;9.4;5;;;;;;;-2.23;73.25391;944.9255;;;;
2020/01/13 05:41:40;;;;;;;8.5;4.4;;;;;;;-2.2;72.9707;944.8694;;;;
2020/01/13 05:44:05;;;;;;;10.7;6.1;;;;;;;-2.13;72.66211;944.9191;;;;
2020/01/13 05:46:31;;;;;;;13.4;7;;;;;;;-2.16;72.59082;944.8151;;;;
2020/01/13 05:48:56;;;;;;;11.8;5.9;;;;;;;-2.12;72.49609;944.8367;;;;
2020/01/13 05:51:21;;;;;;;8.1;5;;;;;;;-2.17;72.70996;944.7455;;;;
2020/01/13 05:53:46;;;;;;;7.6;3.7;;;;;;;-2.16;72.7793;944.7645;;;;
2020/01/13 05:56:12;;;;;;;6.9;2.9;;;;;;;-2.22;72.75586;944.699;;;;
2020/01/13 05:58:37;;;;;;;7.7;3.6;;;;;;;-2.2;72.81543;944.704;;;;
2020/01/13 06:01:02;;;;;;;8.4;4.2;;;;;;;-2.11;72.2666;944.6459;;;;
2020/01/13 06:03:27;;;;;;;12.2;4.5;;;;;;;-2.02;72.09277;944.6504;;;;
2020/01/13 06:05:52;;;;;;;8;3.6;;;;;;;-2.1;72.22363;944.5051;;;;
2020/01/13 06:08:20;;;;;;;7.7;3.5;;;;;;;-2.2;72.66016;944.5372;;;;
2020/01/13 06:10:42;;;;;;;9.6;4.4;;;;;;;-2.2;72.88184;944.4934;;;;
2020/01/13 06:13:07;;;;;;;10.9;4.5;;;;;;;-2.17;72.83203;944.5461;;;;
2020/01/13 06:15:32;;;;;;;9.7;4.6;;;;;;;-2.08;72.52539;944.5555;;;;
2020/01/13 06:17:57;;;;;;;11.1;4.3;;;;;;;-2.08;72.36133;944.5568;;;;
2020/01/13 06:20:22;;;;;;;10.4;4;;;;;;;-2.09;72.45801;944.4531;;;;
2020/01/13 06:22:47;;;;;;;14.1;5.9;;;;;;;-2.21;73.06934;944.505;;;;
2020/01/13 06:25:31;;;;;;;14.6;6.7;;;;;;;-2.24;73.37305;944.5188;;;;
2020/01/13 06:27:54;;;;;;;17.6;8.7;;;;;;;-2.21;73.42383;944.5034;;;;
2020/01/13 06:30:20;;;;;;;23.3;15.2;;;;;;;-2.23;73.65332;944.5083;;;;
2020/01/13 06:32:54;;;;;;;23;10.2;;;;;;;-2.27;73.84473;944.592;;;;
2020/01/13 06:35:14;;;;;;;18.4;8.6;;;;;;;-2.21;73.5127;944.6342;;;;
2020/01/13 06:37:35;;;;;;;16.5;7.9;;;;;;;-2.06;73.0166;944.6301;;;;
2020/01/13 06:40:00;;;;;;;24.8;8.7;;;;;;;-1.91;72.55664;944.605;;;;
2020/01/13 06:42:25;;;;;;;20.7;8.6;;;;;;;-1.78;71.72461;944.6308;;;;
2020/01/13 06:44:50;;;;;;;19.8;10.4;;;;;;;-1.74;71.44238;944.6406;;;;
2020/01/13 06:47:18;;;;;;;21.4;11.2;;;;;;;-1.88;71.80762;944.5982;;;;
2020/01/13 06:49:43;;;;;;;20.2;10.6;;;;;;;-2.02;72.34668;944.4278;;;;
2020/01/13 06:54:31;;;;;;;15.8;8.4;;;;;;;-2.2;73.40137;944.5322;;;;
2020/01/13 06:56:56;;;;;;;20.1;8.5;;;;;;;-2.22;73.32031;944.4266;;;;
2020/01/13 06:59:21;;;;;;;16.1;5.9;;;;;;;-2.25;73.83691;944.4789;;;;
2020/01/13 07:01:47;;;;;;;14.3;4.9;;;;;;;-2.12;73.39551;944.3185;;;;
2020/01/13 07:06:38;;;;;;;15.6;4.9;;;;;;;-2.02;72.82324;944.3692;;;;
2020/01/13 07:09:04;;;;;;;16.2;4.2;;;;;;;-2.04;72.56641;944.171;;;;
2020/01/13 07:11:28;;;;;;;12;5.1;;;;;;;-1.96;71.81543;944.2287;;;;
2020/01/13 07:13:54;;;;;;;12.5;4;;;;;;;-2;71.61914;944.1783;;;;
2020/01/13 07:16:19;;;;;;;10.9;4.1;;;;;;;-1.9;70.58301;944.2411;;;;
2020/01/13 07:18:45;;;;;;;13.3;3.4;;;;;;;-1.71;70.32813;944.1351;;;;
2020/01/13 07:21:17;;;;;;;10.1;3.2;;;;;;;-1.5;69.82813;944.2037;;;;
2020/01/13 07:23:37;;;;;;;13.9;3.5;;;;;;;-1.31;68.87207;944.2622;;;;
2020/01/13 07:26:01;;;;;;;22.8;9.8;;;;;;;-1.32;68.96094;944.2478;;;;
2020/01/13 07:28:25;;;;;;;29.6;12;;;;;;;-1.28;72.58691;944.2028;;;;
2020/01/13 07:30:50;;;;;;;24.5;12.3;;;;;;;-1.34;70.48828;944.1599;;;;
2020/01/13 07:33:17;;;;;;;38.2;18.8;;;;;;;-1.43;70.31738;944.1758;;;;
2020/01/13 07:35:42;;;;;;;45.7;28;;;;;;;-1.57;70.79492;944.1298;;;;
2020/01/13 07:38:08;;;;;;;49.9;27.5;;;;;;;-1.57;71.0498;944.1292;;;;
2020/01/13 07:40:33;;;;;;;33.2;16.7;;;;;;;-1.66;71.24512;944.0506;;;;
2020/01/13 07:42:58;;;;;;;41.8;18.9;;;;;;;-1.63;71.50488;944.0641;;;;
2020/01/13 07:45:24;;;;;;;36.8;17.9;;;;;;;-1.58;74.07813;944.014;;;;
2020/01/13 07:47:49;;;;;;;36.7;16;;;;;;;-1.35;73.62891;944.1043;;;;
2020/01/13 07:50:14;;;;;;;26.2;10.4;;;;;;;-1.2;71.25488;944.0604;;;;
2020/01/13 07:52:39;;;;;;;23.2;8.1;;;;;;;-1.02;69.60938;944.0339;;;;
2020/01/13 07:55:04;;;;;;;18.6;6.8;;;;;;;-0.84;68.82617;944.0598;;;;
2020/01/13 07:57:30;;;;;;;14.9;5.5;;;;;;;-0.68;67.88477;944.0589;;;;
2020/01/13 07:59:55;;;;;;;11.8;4.2;;;;;;;-0.33;66.46191;944.0617;;;;
2020/01/13 08:02:21;;;;;;;8.8;3.6;;;;;;;0.08;64.70996;944.0243;;;;
2020/01/13 08:04:46;;;;;;;11.3;3.5;;;;;;;0.51;63.05859;943.9711;;;;
2020/01/13 08:07:11;;;;;;;18.5;4;;;;;;;1.11;61.11426;943.9504;;;;
2020/01/13 08:09:36;;;;;;;10.2;3.6;;;;;;;1.48;59.0332;943.908;;;;
2020/01/13 08:12:02;;;;;;;17.3;4.8;;;;;;;1.59;58.91504;943.8563;;;;
2020/01/13 08:14:27;;;;;;;16.5;8.9;;;;;;;1.58;58.61133;943.96;;;;
2020/01/13 08:16:52;;;;;;;21.2;10.2;;;;;;;1.48;59.12402;943.9387;;;;
2020/01/13 08:19:17;;;;;;;22.5;14.2;;;;;;;1.33;59.62598;943.8244;;;;
2020/01/13 08:21:42;;;;;;;26;15;;;;;;;1.26;60.4668;943.8836;;;;
2020/01/13 08:24:07;;;;;;;26.6;9.8;;;;;;;1.11;61.37207;943.7968;;;;
2020/01/13 08:26:33;;;;;;;16.8;8.3;;;;;;;0.97;61.75391;943.8008;;;;
2020/01/13 08:28:57;;;;;;;28.9;9.3;;;;;;;0.98;62.26855;943.8029;;;;
2020/01/13 08:31:28;;;;;;;13.3;6.3;;;;;;;1.21;61.35352;943.7478;;;;
2020/01/13 08:33:48;;;;;;;28.2;7.8;;;;;;;1.56;60.57715;943.7302;;;;
2020/01/13 08:36:13;;;;;;;18.2;4.9;;;;;;;1.74;59.37207;943.6893;;;;
2020/01/13 08:38:39;;;;;;;16.9;5.3;;;;;;;1.69;59.75684;943.6788;;;;
2020/01/13 08:41:04;;;;;;;27.4;7.7;;;;;;;1.83;59.42871;943.6826;;;;
2020/01/13 08:43:29;;;;;;;24.9;6.2;;;;;;;2.27;57.97949;943.5581;;;;
2020/01/13 08:45:55;;;;;;;25.1;6;;;;;;;2.68;56.43262;943.6923;;;;
2020/01/13 08:48:20;;;;;;;29.6;13.2;;;;;;;2.89;56.31445;943.6135;;;;
2020/01/13 08:50:45;;;;;;;26.1;9.4;;;;;;;3.14;55.61914;943.5545;;;;
2020/01/13 08:53:11;;;;;;;23.5;7.3;;;;;;;3.02;56.0957;943.52;;;;
2020/01/13 08:55:36;;;;;;;20.5;6.4;;;;;;;2.77;56.57813;943.5179;;;;
2020/01/13 08:58:01;;;;;;;23.5;5.4;;;;;;;2.53;57.5332;943.519;;;;
2020/01/13 09:00:27;;;;;;;28.6;5.3;;;;;;;2.39;56.69531;943.4625;;;;
2020/01/13 09:02:52;;;;;;;17.4;3.8;;;;;;;2.27;56.84766;943.467;;;;
2020/01/13 09:05:17;;;;;;;23.6;4.5;;;;;;;2.3;56.67383;943.4464;;;;
2020/01/13 09:07:43;;;;;;;32.2;4.8;;;;;;;2.4;56.22656;943.4338;;;;
2020/01/13 09:10:08;;;;;;;24.7;4.4;;;;;;;2.56;56.13574;943.4465;;;;
2020/01/13 09:12:33;;;;;;;20.6;3.4;;;;;;;2.65;54.69043;943.4345;;;;
2020/01/13 09:14:58;;;;;;;56.1;7.5;;;;;;;2.51;56.10645;943.4149;;;;
2020/01/13 09:17:24;;;;;;;39.7;8.1;;;;;;;2.45;57.73535;943.395;;;;
2020/01/13 09:19:49;;;;;;;24.3;8.7;;;;;;;2.46;57.91504;943.459;;;;
2020/01/13 09:22:14;;;;;;;24.2;8.8;;;;;;;2.24;58.17578;943.481;;;;
2020/01/13 09:24:39;;;;;;;9.5;5.4;;;;;;;2.2;57.18555;943.5188;;;;
2020/01/13 09:27:04;;;;;;;33.3;8.2;;;;;;;2.28;57.99121;943.4295;;;;
2020/01/13 09:29:29;;;;;;;60;12.5;;;;;;;2.5;58;943.5295;;;;
2020/01/13 09:32:01;;;;;;;28.2;8.3;;;;;;;2.58;57.13672;943.5569;;;;
2020/01/13 09:34:20;;;;;;;22.6;6.5;;;;;;;2.69;56.24219;943.5267;;;;
2020/01/13 09:36:45;;;;;;;35.1;7.6;;;;;;;3.02;55.58008;943.5522;;;;
2020/01/13 09:39:10;;;;;;;34.7;8.5;;;;;;;3.11;54.48047;943.5233;;;;
2020/01/13 09:41:35;;;;;;;49.1;9.7;;;;;;;3.23;54.6416;943.5266;;;;
2020/01/13 09:44:00;;;;;;;18.4;5.7;;;;;;;3.3;54.61719;943.4992;;;;
2020/01/13 09:46:25;;;;;;;40.7;8.1;;;;;;;3.45;54.0293;943.4602;;;;
2020/01/13 09:48:50;;;;;;;60.8;10.7;;;;;;;3.46;54.01953;943.4717;;;;
2020/01/13 09:51:15;;;;;;;30.4;6.6;;;;;;;3.53;53.68066;943.4183;;;;
2020/01/13 09:53:41;;;;;;;13.2;4.5;;;;;;;3.44;52.55859;943.4048;;;;
2020/01/13 09:56:49;;;;;;;19.2;4.8;;;;;;;3.32;52.66699;943.3733;;;;
2020/01/13 09:58:41;;;;;;;52.6;7.9;;;;;;;3.54;53.24414;943.3455;;;;
2020/01/13 10:00:59;;;;;;;22.7;3.9;;;;;;;3.84;51.67285;943.3582;;;;
2020/01/13 10:03:21;;;;;;;17.1;3.8;;;;;;;4.02;50.12109;943.3511;;;;
2020/01/13 10:05:46;;;;;;;14.7;3.1;;;;;;;4.25;48.52832;943.2885;;;;
2020/01/13 10:08:11;;;;;;;12.2;3.8;;;;;;;4.35;47.28027;943.1886;;;;
2020/01/13 10:10:36;;;;;;;11.6;3;;;;;;;4.24;47.96484;943.2706;;;;
2020/01/13 10:13:01;;;;;;;24.7;4;;;;;;;4.35;48.5166;943.1941;;;;
2020/01/13 10:15:26;;;;;;;55.5;7.6;;;;;;;4.47;48.33887;943.206;;;;
2020/01/13 10:17:52;;;;;;;20;4.1;;;;;;;4.54;48.66309;943.128;;;;
2020/01/13 10:20:17;;;;;;;24.3;4.9;;;;;;;4.61;47.92773;943.0953;;;;
2020/01/13 10:22:42;;;;;;;30.1;5.1;;;;;;;4.71;47.89355;943.0472;;;;
2020/01/13 10:25:07;;;;;;;55.2;7.8;;;;;;;4.82;47.64746;943.0258;;;;
2020/01/13 10:27:32;;;;;;;26.2;4.9;;;;;;;5.11;46.35938;942.9579;;;;
2020/01/13 10:29:57;;;;;;;32.6;6.2;;;;;;;5.17;45.9834;942.8647;;;;
2020/01/13 10:32:22;;;;;;;13.4;4.6;;;;;;;5.1;44.375;942.8764;;;;
2020/01/13 10:34:47;;;;;;;12.5;4;;;;;;;5.18;44.63184;942.8304;;;;
2020/01/13 10:37:12;;;;;;;10.6;3.6;;;;;;;5.27;43.90723;942.7518;;;;
2020/01/13 10:39:37;;;;;;;8.2;2.9;;;;;;;5.34;44.07129;942.7213;;;;
2020/01/13 10:42:02;;;;;;;8.4;3.2;;;;;;;5.69;44.32324;942.6291;;;;
2020/01/13 10:44:28;;;;;;;12.9;3.2;;;;;;;6.05;43.44434;942.5425;;;;
2020/01/13 10:46:53;;;;;;;16.8;4.2;;;;;;;6.23;43.33887;942.5986;;;;
2020/01/13 10:49:18;;;;;;;26;4.2;;;;;;;6.43;41.63965;942.5728;;;;
2020/01/13 10:51:43;;;;;;;75.5;9;;;;;;;6.45;41.26953;942.4755;;;;
2020/01/13 10:54:08;;;;;;;9.8;3.6;;;;;;;6.37;40.96777;942.4947;;;;
2020/01/13 10:56:33;;;;;;;38.4;7;;;;;;;6.32;42.00195;942.5168;;;;
2020/01/13 10:58:58;;;;;;;36.4;7.2;;;;;;;6.32;42.55664;942.391;;;;
2020/01/13 11:01:23;;;;;;;14.7;6.7;;;;;;;6.04;42.63086;942.4934;;;;
2020/01/13 11:03:48;;;;;;;26.1;7.3;;;;;;;6.02;44.33496;942.4515;;;;
2020/01/13 11:06:13;;;;;;;26.3;7.7;;;;;;;6.16;45.50195;942.2988;;;;
2020/01/13 11:08:38;;;;;;;18.9;7.2;;;;;;;6.42;46.47949;942.2316;;;;
2020/01/13 11:11:04;;;;;;;22.8;7.1;;;;;;;6.67;44.73145;942.1266;;;;
2020/01/13 11:13:29;;;;;;;11.9;4.8;;;;;;;6.74;42.36133;942.0874;;;;
2020/01/13 11:15:54;;;;;;;23.2;7;;;;;;;6.79;42.56934;941.959;;;;
2020/01/13 11:18:19;;;;;;;21.7;10.2;;;;;;;6.51;42.79004;941.9939;;;;
2020/01/13 11:23:09;;;;;;;15.3;6.7;;;;;;;6.56;42.35449;941.9124;;;;
2020/01/13 11:26:41;;;;;;;13;5.2;;;;;;;6.38;42.7666;941.8978;;;;
2020/01/13 11:27:59;;;;;;;28.8;6;;;;;;;6.7;42.56055;941.8511;;;;
2020/01/13 11:30:24;;;;;;;14;3.8;;;;;;;6.78;41.85547;941.7062;;;;
2020/01/13 11:32:49;;;;;;;22.3;5.1;;;;;;;7.1;41.54688;941.7311;;;;
2020/01/13 11:35:15;;;;;;;30;4.9;;;;;;;7.27;39.81836;941.6395;;;;
2020/01/13 11:37:40;;;;;;;19.2;3.9;;;;;;;7.48;40.25684;941.6468;;;;
2020/01/13 11:40:06;;;;;;;19.6;4.7;;;;;;;7.61;39.18066;941.6324;;;;
2020/01/13 11:42:30;;;;;;;16.5;4.9;;;;;;;7.75;39.97656;941.5321;;;;
2020/01/13 11:44:55;;;;;;;16.9;3.7;;;;;;;7.59;38.4541;941.4977;;;;
2020/01/13 11:47:20;;;;;;;28.3;4.8;;;;;;;7.46;39.63184;941.4689;;;;
2020/01/13 11:49:45;;;;;;;10.8;2.8;;;;;;;7.38;38.29785;941.4545;;;;
2020/01/13 11:52:10;;;;;;;7.1;2.6;;;;;;;7.73;37.49023;941.3486;;;;
2020/01/13 11:54:35;;;;;;;8.5;2.8;;;;;;;7.93;38.50684;941.3195;;;;
2020/01/13 11:57:00;;;;;;;7.3;2.7;;;;;;;8.15;37.57227;941.241;;;;
2020/01/13 11:59:25;;;;;;;6.6;2.2;;;;;;;8.25;37.18359;941.2491;;;;
2020/01/13 12:01:50;;;;;;;7.5;2.3;;;;;;;8.3;37.32324;941.2256;;;;
2020/01/13 12:04:16;;;;;;;9.7;3.1;;;;;;;8.47;36.82813;941.1539;;;;
2020/01/13 12:06:40;;;;;;;13.5;3;;;;;;;8.58;36.06445;941.0905;;;;
2020/01/13 12:09:06;;;;;;;10.8;2.6;;;;;;;8.89;36.30566;941.0386;;;;
2020/01/13 12:11:31;;;;;;;8.6;2.6;;;;;;;9.25;34.98145;940.9356;;;;
2020/01/13 12:13:56;;;;;;;11.5;3;;;;;;;9.53;36.24512;940.9187;;;;
2020/01/13 12:16:21;;;;;;;5.4;2.1;;;;;;;9.7;34.50488;940.848;;;;
2020/01/13 12:18:46;;;;;;;7.3;2;;;;;;;9.84;34.09473;940.7941;;;;
2020/01/13 12:21:11;;;;;;;5.6;2.2;;;;;;;9.96;33.75098;940.7101;;;;
2020/01/13 12:23:36;;;;;;;6;2.2;;;;;;;9.98;34.18555;940.6469;;;;
2020/01/13 12:26:02;;;;;;;10.2;2.2;;;;;;;10.18;33.44824;940.6978;;;;
2020/01/13 12:28:27;;;;;;;7.8;2.1;;;;;;;10.35;34.51172;940.6674;;;;
2020/01/13 12:30:52;;;;;;;6.9;2.3;;;;;;;10.49;34.4541;940.6879;;;;
2020/01/13 12:33:18;;;;;;;9.5;2.3;;;;;;;10.62;33.98535;940.6565;;;;
2020/01/13 12:35:43;;;;;;;4.3;2.1;;;;;;;10.74;34.10938;940.6174;;;;
2020/01/13 12:38:08;;;;;;;5.4;2.2;;;;;;;10.86;31.85645;940.5658;;;;
2020/01/13 12:43:04;;;;;;;8.2;2.4;;;;;;;11.04;31.62891;940.5617;;;;
2020/01/13 12:45:23;;;;;;;6;2.1;;;;;;;11.1;32.18262;940.5106;;;;
2020/01/13 12:47:48;;;;;;;7.8;2.1;;;;;;;11.13;30.67578;940.5373;;;;
2020/01/13 12:50:13;;;;;;;10;2.1;;;;;;;11.13;32.08105;940.4814;;;;
2020/01/13 12:52:38;;;;;;;6.2;2;;;;;;;11.11;30.38867;940.5164;;;;
2020/01/13 12:55:03;;;;;;;5.5;1.8;;;;;;;11.11;30.78906;940.5865;;;;
2020/01/13 12:57:29;;;;;;;6.2;2;;;;;;;11.13;31.99023;940.5508;;;;
2020/01/13 12:59:54;;;;;;;5.3;2;;;;;;;11.12;30.9375;940.5506;;;;
2020/01/13 13:02:19;;;;;;;14.5;2.5;;;;;;;10.86;31.47852;940.5673;;;;
2020/01/13 13:04:44;;;;;;;9.8;2.4;;;;;;;10.81;33.23535;940.4772;;;;
2020/01/13 13:07:09;;;;;;;6.8;2.2;;;;;;;10.84;32.87109;940.5256;;;;
2020/01/13 13:09:35;;;;;;;10;2.1;;;;;;;10.86;32.50781;940.5626;;;;
2020/01/13 13:12:00;;;;;;;16;3.2;;;;;;;10.73;32.2002;940.5192;;;;
2020/01/13 13:14:25;;;;;;;5.7;2;;;;;;;10.72;31.74316;940.4451;;;;
2020/01/13 13:16:51;;;;;;;6.1;1.9;;;;;;;10.53;32.54004;940.4678;;;;
2020/01/13 13:19:16;;;;;;;6.9;2.2;;;;;;;10.61;33.37988;940.4756;;;;
2020/01/13 13:21:41;;;;;;;4.6;1.8;;;;;;;10.7;34.19727;940.4393;;;;
2020/01/13 13:24:06;;;;;;;7.8;2.3;;;;;;;10.79;33.65625;940.5296;;;;
2020/01/13 13:26:32;;;;;;;8.5;2.4;;;;;;;10.81;33.36035;940.5134;;;;
2020/01/13 13:28:57;;;;;;;7.6;2.7;;;;;;;10.66;33.48535;940.5176;;;;
2020/01/13 13:31:26;;;;;;;5.3;2.7;;;;;;;10.46;34.96484;940.4781;;;;
2020/01/13 13:33:48;;;;;;;10.5;3.1;;;;;;;10.43;35.04297;940.5175;;;;
2020/01/13 13:36:13;;;;;;;6.6;2.4;;;;;;;10.36;33.97656;940.4838;;;;
2020/01/13 13:38:40;;;;;;;7.2;2.4;;;;;;;10.09;34.58203;940.4141;;;;
2020/01/13 13:41:05;;;;;;;4.7;2.4;;;;;;;10.3;34.1543;940.3723;;;;
2020/01/13 13:43:30;;;;;;;4.3;2.2;;;;;;;10.65;34.41113;940.3773;;;;
2020/01/13 13:45:55;;;;;;;8;2.2;;;;;;;10.94;34.45605;940.4448;;;;
2020/01/13 13:48:21;;;;;;;5.6;2.3;;;;;;;11.26;35.69336;940.44;;;;
2020/01/13 13:50:46;;;;;;;6.3;2.1;;;;;;;11.48;35.12891;940.4664;;;;
2020/01/13 13:53:11;;;;;;;6.1;2.6;;;;;;;12.13;33.9082;940.4266;;;;
2020/01/13 13:55:36;;;;;;;6.5;2.5;;;;;;;13.29;33.01172;940.4412;;;;
2020/01/13 13:58:01;;;;;;;6.8;2.5;;;;;;;14.6;30.29883;940.4736;;;;
2020/01/13 14:00:26;;;;;;;10.9;3;;;;;;;15.23;29.0498;940.5374;;;;
2020/01/13 14:02:51;;;;;;;8.3;2.9;;;;;;;15.52;29.16211;940.4903;;;;
2020/01/13 14:05:16;;;;;;;5.2;2.6;;;;;;;15.87;27.41602;940.5363;;;;
2020/01/13 14:07:41;;;;;;;7.9;2.7;;;;;;;16.1;27.08398;940.4448;;;;
2020/01/13 14:10:07;;;;;;;9.4;2.3;;;;;;;15.89;26.9541;940.5723;;;;
2020/01/13 14:12:32;;;;;;;7;2.3;;;;;;;15.26;28.11621;940.591;;;;
2020/01/13 14:14:57;;;;;;;10.6;2;;;;;;;14.29;29.4834;940.5761;;;;
2020/01/13 14:17:22;;;;;;;5.6;1.7;;;;;;;12.84;31.66895;940.6035;;;;
2020/01/13 14:19:47;;;;;;;8.5;2.4;;;;;;;12.06;33.68555;940.6224;;;;
2020/01/13 14:22:12;;;;;;;13.7;3.6;;;;;;;11.48;34.55566;940.6753;;;;
2020/01/13 14:24:37;;;;;;;18.7;4.1;;;;;;;10.96;35.62402;940.7367;;;;
2020/01/13 14:27:02;;;;;;;7.4;2.6;;;;;;;10.74;35.94824;940.7161;;;;
2020/01/13 14:29:27;;;;;;;3.7;1.8;;;;;;;10.53;35.71387;940.7131;;;;
2020/01/13 14:31:52;;;;;;;16.7;3.3;;;;;;;10.19;36.54102;940.7019;;;;
2020/01/13 14:34:17;;;;;;;11.5;2.8;;;;;;;9.93;36.97461;940.6666;;;;
2020/01/13 14:36:43;;;;;;;5.3;1.9;;;;;;;9.82;36.80664;940.5839;;;;
2020/01/13 14:39:08;;;;;;;5.6;2;;;;;;;9.58;38.02832;940.6191;;;;
2020/01/13 14:41:33;;;;;;;8.5;2.5;;;;;;;9.59;38.26758;940.7456;;;;